createdAt,value
2017-08-26T00:01:42.318Z,17.20
2017-08-26T00:04:39.941Z,17.10
2017-08-26T00:07:38.483Z,17.00
2017-08-26T00:10:42.278Z,17.00
2017-08-26T00:13:39.893Z,16.90
2017-08-26T00:16:43.643Z,16.80
2017-08-26T00:19:41.079Z,16.80
2017-08-26T00:22:38.736Z,17.00
2017-08-26T00:25:40.507Z,17.00
2017-08-26T00:28:38.086Z,17.00
2017-08-26T00:31:41.808Z,17.10
2017-08-26T00:34:39.435Z,17.10
2017-08-26T00:37:44.227Z,17.20
2017-08-26T00:40:42.720Z,17.30
2017-08-26T00:43:41.267Z,17.20
2017-08-26T00:46:39.770Z,17.10
2017-08-26T00:49:43.258Z,17.00
2017-08-26T00:52:40.875Z,16.90
2017-08-26T00:55:44.666Z,16.80
2017-08-26T00:58:43.363Z,16.80
2017-08-26T01:01:47.087Z,16.90
2017-08-26T01:04:44.823Z,16.90
2017-08-26T01:07:47.572Z,16.80
2017-08-26T01:10:58.336Z,16.80
2017-08-26T01:13:55.957Z,16.80
2017-08-26T01:16:53.608Z,16.80
2017-08-26T01:19:51.065Z,16.90
2017-08-26T01:22:49.835Z,16.90
2017-08-26T01:25:53.607Z,16.80
2017-08-26T01:28:51.259Z,16.80
2017-08-26T01:31:49.802Z,16.80
2017-08-26T01:34:47.504Z,16.80
2017-08-26T01:37:48.037Z,16.80
2017-08-26T01:40:45.508Z,16.70
2017-08-26T01:43:43.118Z,16.70
2017-08-26T01:46:44.520Z,16.70
2017-08-26T01:49:42.958Z,16.60
2017-08-26T01:52:41.448Z,16.60
2017-08-26T01:55:40.790Z,16.50
2017-08-26T01:58:40.699Z,16.40
2017-08-26T02:01:42.342Z,16.40
2017-08-26T02:04:41.108Z,16.40
2017-08-26T02:07:46.921Z,16.40
2017-08-26T02:10:51.598Z,16.30
2017-08-26T02:13:54.940Z,16.30
2017-08-26T02:16:52.535Z,16.30
2017-08-26T02:19:51.218Z,16.20
2017-08-26T02:22:48.811Z,16.20
2017-08-26T02:25:47.262Z,16.20
2017-08-26T02:28:44.967Z,16.20
2017-08-26T02:31:42.436Z,16.00
2017-08-26T02:34:40.081Z,16.00
2017-08-26T02:37:43.503Z,16.00
2017-08-26T02:40:41.056Z,15.90
2017-08-26T02:43:38.910Z,15.90
2017-08-26T02:46:36.387Z,15.90
2017-08-26T02:49:41.875Z,15.80
2017-08-26T02:52:39.555Z,15.80
2017-08-26T02:55:43.368Z,15.90
2017-08-26T02:58:41.347Z,15.80
2017-08-26T03:01:43.098Z,15.90
2017-08-26T03:04:41.197Z,15.90
2017-08-26T03:07:40.022Z,15.90
2017-08-26T03:10:43.621Z,15.80
2017-08-26T03:13:45.466Z,15.90
2017-08-26T03:16:45.950Z,15.70
2017-08-26T03:19:43.617Z,15.60
2017-08-26T03:22:44.547Z,15.60
2017-08-26T03:25:42.362Z,15.40
2017-08-26T03:28:46.465Z,15.40
2017-08-26T03:31:45.922Z,15.40
2017-08-26T03:34:43.536Z,15.50
2017-08-26T03:37:41.254Z,15.60
2017-08-26T03:40:40.034Z,15.50
2017-08-26T03:43:43.752Z,15.50
2017-08-26T03:46:41.267Z,15.50
2017-08-26T03:49:39.940Z,15.80
2017-08-26T03:52:45.718Z,15.80
2017-08-26T03:55:49.253Z,15.80
2017-08-26T03:58:49.746Z,15.80
2017-08-26T04:01:48.171Z,15.80
2017-08-26T04:04:47.090Z,15.80
2017-08-26T04:07:45.763Z,15.70
2017-08-26T04:10:43.429Z,15.60
2017-08-26T04:13:41.174Z,15.50
2017-08-26T04:16:45.107Z,15.40
2017-08-26T04:19:45.920Z,15.40
2017-08-26T04:22:44.542Z,15.40
2017-08-26T04:25:42.232Z,15.40
2017-08-26T04:28:45.967Z,15.40
2017-08-26T04:31:43.669Z,15.40
2017-08-26T04:34:41.426Z,15.40
2017-08-26T04:37:45.275Z,15.40
2017-08-26T04:40:46.082Z,15.40
2017-08-26T04:43:43.820Z,15.30
2017-08-26T04:46:46.335Z,15.40
2017-08-26T04:49:44.071Z,15.50
2017-08-26T04:52:42.856Z,15.60
2017-08-26T04:55:40.565Z,15.70
2017-08-26T04:58:38.204Z,15.70
2017-08-26T05:01:35.796Z,15.70
2017-08-26T05:04:33.504Z,15.80
2017-08-26T05:07:30.855Z,15.80
2017-08-26T05:10:28.545Z,15.80
2017-08-26T05:13:26.018Z,15.80
2017-08-26T05:16:23.610Z,15.80
2017-08-26T05:19:21.236Z,15.90
2017-08-26T05:22:18.867Z,15.90
2017-08-26T05:25:16.697Z,16.10
2017-08-26T05:28:14.192Z,16.20
2017-08-26T05:31:11.598Z,16.20
2017-08-26T05:34:09.195Z,16.30
2017-08-26T05:37:06.672Z,16.40
2017-08-26T05:40:04.279Z,16.60
2017-08-26T05:43:01.987Z,16.80
2017-08-26T05:45:59.641Z,16.90
2017-08-26T05:48:57.208Z,17.10
2017-08-26T05:51:55.007Z,17.30
2017-08-26T05:54:52.417Z,17.40
2017-08-26T05:57:50.319Z,17.50
2017-08-26T06:00:48.002Z,17.60
2017-08-26T06:03:45.621Z,17.70
2017-08-26T06:06:43.196Z,17.80
2017-08-26T06:09:40.567Z,17.90
2017-08-26T06:12:38.191Z,18.10
2017-08-26T06:15:35.787Z,18.20
2017-08-26T06:18:33.427Z,18.20
2017-08-26T06:21:31.246Z,18.40
2017-08-26T06:24:29.116Z,18.50
2017-08-26T06:27:27.646Z,18.60
2017-08-26T06:30:31.550Z,18.60
2017-08-26T06:33:29.178Z,18.70
2017-08-26T06:36:27.139Z,18.80
2017-08-26T06:39:28.176Z,18.90
2017-08-26T06:42:25.890Z,18.90
2017-08-26T06:45:29.602Z,19.00
2017-08-26T06:48:28.239Z,19.20
2017-08-26T06:51:28.111Z,19.30
2017-08-26T06:54:26.109Z,19.60
2017-08-26T06:57:29.978Z,19.70
2017-08-26T07:00:39.719Z,19.90
2017-08-26T07:03:49.666Z,20.10
2017-08-26T07:06:50.475Z,20.30
2017-08-26T07:09:50.446Z,20.50
2017-08-26T07:12:52.259Z,20.70
2017-08-26T07:15:50.766Z,20.90
2017-08-26T07:18:48.510Z,21.00
2017-08-26T07:21:49.034Z,21.10
2017-08-26T07:24:47.932Z,21.20
2017-08-26T07:27:45.550Z,21.40
2017-08-26T07:30:43.061Z,21.50
2017-08-26T07:33:40.513Z,21.50
2017-08-26T07:36:45.939Z,21.60
2017-08-26T07:39:43.478Z,21.70
2017-08-26T07:42:54.108Z,21.90
2017-08-26T07:45:52.607Z,22.00
2017-08-26T07:48:52.221Z,22.10
2017-08-26T07:51:49.816Z,22.20
2017-08-26T07:54:47.494Z,22.40
2017-08-26T07:57:45.312Z,22.50
2017-08-26T08:00:42.956Z,22.60
2017-08-26T08:03:40.527Z,22.80
2017-08-26T08:06:38.217Z,22.90
2017-08-26T08:09:38.840Z,23.10
2017-08-26T08:12:36.431Z,23.20
2017-08-26T08:15:45.056Z,23.40
2017-08-26T08:18:42.515Z,23.50
2017-08-26T08:21:40.135Z,23.40
2017-08-26T08:24:38.007Z,23.50
2017-08-26T08:27:35.956Z,23.80
2017-08-26T08:30:33.806Z,23.90
2017-08-26T08:33:31.420Z,23.80
2017-08-26T08:36:28.979Z,23.80
2017-08-26T08:39:26.822Z,23.80
2017-08-26T08:42:26.490Z,24.00
2017-08-26T08:45:24.177Z,24.30
2017-08-26T08:48:21.730Z,24.40
2017-08-26T08:51:19.480Z,24.60
2017-08-26T08:54:22.666Z,24.90
2017-08-26T08:57:23.251Z,25.00
2017-08-26T09:00:21.022Z,25.20
2017-08-26T09:03:18.624Z,25.30
2017-08-26T09:06:16.079Z,25.50
2017-08-26T09:09:13.717Z,25.60
2017-08-26T09:12:11.270Z,25.70
2017-08-26T09:15:08.606Z,25.70
2017-08-26T09:18:06.079Z,25.80
2017-08-26T09:21:03.611Z,26.00
2017-08-26T09:24:01.226Z,26.10
2017-08-26T09:26:58.882Z,26.30
2017-08-26T09:29:56.485Z,26.40
2017-08-26T09:32:54.191Z,26.50
2017-08-26T09:35:51.933Z,26.70
2017-08-26T09:38:50.595Z,26.80
2017-08-26T09:41:50.181Z,26.90
2017-08-26T09:44:52.939Z,26.70
2017-08-26T09:47:50.584Z,26.70
2017-08-26T09:50:49.211Z,26.80
2017-08-26T09:53:47.815Z,27.10
2017-08-26T09:56:46.636Z,27.30
2017-08-26T09:59:44.266Z,27.30
2017-08-26T10:02:43.726Z,27.40
2017-08-26T10:05:41.287Z,27.40
2017-08-26T10:08:41.976Z,27.60
2017-08-26T10:11:41.640Z,27.50
2017-08-26T10:14:41.389Z,27.60
2017-08-26T10:17:40.260Z,27.90
2017-08-26T10:20:43.991Z,28.10
2017-08-26T10:23:41.416Z,27.90
2017-08-26T10:26:51.045Z,27.70
2017-08-26T10:29:51.819Z,27.80
2017-08-26T10:33:05.487Z,28.00
2017-08-26T10:36:02.966Z,28.10
2017-08-26T10:39:01.719Z,28.00
2017-08-26T10:42:00.256Z,28.10
2017-08-26T10:44:57.866Z,28.20
2017-08-26T10:47:55.363Z,28.20
2017-08-26T10:50:53.070Z,28.30
2017-08-26T10:53:50.772Z,28.40
2017-08-26T10:56:48.497Z,28.40
2017-08-26T10:59:46.423Z,28.50
2017-08-26T11:02:44.175Z,28.50
2017-08-26T11:05:41.722Z,28.60
2017-08-26T11:08:39.222Z,28.60
2017-08-26T11:11:37.011Z,28.60
2017-08-26T11:14:34.471Z,28.60
2017-08-26T11:17:32.100Z,28.80
2017-08-26T11:20:30.103Z,29.00
2017-08-26T11:23:28.535Z,29.00
2017-08-26T11:26:27.128Z,29.00
2017-08-26T11:29:30.861Z,29.10
2017-08-26T11:32:28.536Z,29.10
2017-08-26T11:35:26.228Z,29.10
2017-08-26T11:38:23.794Z,29.20
2017-08-26T11:41:23.319Z,29.30
2017-08-26T11:44:22.020Z,29.40
2017-08-26T11:47:20.636Z,29.40
2017-08-26T11:50:21.334Z,29.70
2017-08-26T11:53:20.037Z,29.70
2017-08-26T11:56:17.549Z,29.70
2017-08-26T11:59:21.215Z,29.70
2017-08-26T12:02:19.021Z,29.90
2017-08-26T12:05:16.443Z,30.00
2017-08-26T12:08:20.887Z,30.00
2017-08-26T12:11:18.528Z,30.20
2017-08-26T12:14:16.147Z,30.20
2017-08-26T12:17:13.734Z,30.20
2017-08-26T12:20:11.312Z,30.00
2017-08-26T12:23:09.083Z,30.10
2017-08-26T12:26:07.873Z,30.10
2017-08-26T12:29:07.392Z,30.20
2017-08-26T12:32:05.842Z,30.40
2017-08-26T12:35:03.616Z,30.50
2017-08-26T12:38:08.350Z,30.60
2017-08-26T12:41:05.878Z,30.60
2017-08-26T12:44:03.694Z,30.40
2017-08-26T12:47:01.323Z,30.30
2017-08-26T12:49:59.006Z,30.30
2017-08-26T12:53:01.763Z,30.50
2017-08-26T12:55:59.703Z,30.80
2017-08-26T12:58:59.395Z,31.10
2017-08-26T13:02:01.255Z,31.10
2017-08-26T13:05:05.079Z,30.80
2017-08-26T13:08:03.640Z,30.80
2017-08-26T13:11:01.684Z,30.90
2017-08-26T13:14:04.358Z,30.90
2017-08-26T13:17:05.109Z,31.00
2017-08-26T13:20:02.838Z,31.00
2017-08-26T13:23:00.378Z,30.80
2017-08-26T13:26:04.202Z,30.80
2017-08-26T13:29:01.715Z,30.80
2017-08-26T13:31:59.283Z,30.90
2017-08-26T13:34:57.852Z,31.00
2017-08-26T13:37:55.416Z,31.10
2017-08-26T13:40:53.073Z,30.70
2017-08-26T13:43:50.841Z,30.50
2017-08-26T13:46:48.518Z,30.70
2017-08-26T13:49:46.210Z,30.80
2017-08-26T13:52:43.650Z,31.00
2017-08-26T13:55:41.466Z,30.90
2017-08-26T13:58:39.030Z,30.70
2017-08-26T14:01:36.544Z,30.60
2017-08-26T14:04:34.257Z,30.60
2017-08-26T14:07:31.745Z,30.60
2017-08-26T14:10:30.559Z,30.60
2017-08-26T14:13:29.300Z,30.70
2017-08-26T14:16:27.046Z,30.70
2017-08-26T14:19:24.846Z,30.80
2017-08-26T14:22:22.645Z,30.70
2017-08-26T14:25:20.409Z,30.80
2017-08-26T14:28:18.046Z,31.00
2017-08-26T14:31:16.694Z,31.10
2017-08-26T14:34:15.446Z,31.10
2017-08-26T14:37:14.071Z,31.00
2017-08-26T14:40:11.674Z,30.80
2017-08-26T14:43:09.970Z,30.70
2017-08-26T14:46:07.860Z,30.50
2017-08-26T14:49:06.351Z,30.50
2017-08-26T14:52:12.011Z,30.60
2017-08-26T14:55:09.760Z,30.70
2017-08-26T14:58:08.429Z,30.50
2017-08-26T15:01:08.047Z,30.40
2017-08-26T15:04:05.971Z,30.50
2017-08-26T15:09:45.851Z,30.80
2017-08-26T15:12:43.359Z,30.80
2017-08-26T15:15:40.779Z,30.80
2017-08-26T15:18:38.520Z,30.80
2017-08-26T15:21:36.074Z,30.80
2017-08-26T15:24:33.958Z,30.70
2017-08-26T15:27:31.479Z,30.70
2017-08-26T15:30:35.141Z,30.80
2017-08-26T15:33:38.790Z,30.80
2017-08-26T15:36:37.343Z,30.90
2017-08-26T15:39:41.768Z,30.80
2017-08-26T15:42:41.751Z,30.70
2017-08-26T15:45:39.167Z,30.80
2017-08-26T15:48:36.848Z,31.00
2017-08-26T15:51:34.504Z,31.10
2017-08-26T15:54:31.930Z,31.00
2017-08-26T15:57:29.666Z,30.90
2017-08-26T16:00:27.196Z,30.90
2017-08-26T16:03:33.735Z,30.90
2017-08-26T16:06:31.276Z,30.80
2017-08-26T16:09:28.993Z,30.80
2017-08-26T16:12:26.286Z,30.70
2017-08-26T16:15:23.973Z,30.60
2017-08-26T16:18:21.605Z,30.40
2017-08-26T16:21:20.283Z,30.30
2017-08-26T16:24:17.776Z,30.10
2017-08-26T16:27:16.330Z,30.10
2017-08-26T16:30:13.896Z,30.00
2017-08-26T16:33:12.580Z,30.00
2017-08-26T16:36:10.108Z,30.00
2017-08-26T16:39:13.887Z,30.00
2017-08-26T16:42:11.540Z,29.90
2017-08-26T16:45:09.076Z,30.00
2017-08-26T16:48:06.606Z,30.00
2017-08-26T16:51:04.146Z,29.90
2017-08-26T16:54:01.774Z,29.80
2017-08-26T16:57:02.230Z,29.80
2017-08-26T17:00:02.720Z,29.70
2017-08-26T17:03:01.434Z,29.70
2017-08-26T17:06:08.209Z,29.70
2017-08-26T17:09:11.841Z,29.60
2017-08-26T17:12:10.374Z,29.50
2017-08-26T17:15:08.878Z,29.40
2017-08-26T17:18:06.213Z,29.30
2017-08-26T17:21:09.733Z,29.30
2017-08-26T17:24:07.650Z,29.10
2017-08-26T17:27:09.173Z,28.80
2017-08-26T17:30:13.005Z,28.50
2017-08-26T17:33:16.840Z,28.20
2017-08-26T17:36:16.695Z,27.90
2017-08-26T17:39:14.313Z,27.60
2017-08-26T17:42:11.917Z,27.40
2017-08-26T17:45:09.336Z,27.20
2017-08-26T17:48:07.392Z,27.10
2017-08-26T17:51:04.842Z,26.90
2017-08-26T17:54:02.638Z,26.70
2017-08-26T17:57:03.298Z,26.60
2017-08-26T18:00:00.845Z,26.50
2017-08-26T18:03:01.435Z,26.40
2017-08-26T18:06:05.018Z,26.30
2017-08-26T18:09:02.490Z,26.20
2017-08-26T18:12:00.300Z,26.00
2017-08-26T18:14:57.804Z,25.70
2017-08-26T18:17:55.351Z,25.60
2017-08-26T18:20:52.908Z,25.50
2017-08-26T18:23:50.676Z,25.40
2017-08-26T18:26:48.109Z,25.20
2017-08-26T18:29:45.623Z,25.00
2017-08-26T18:32:43.810Z,24.80
2017-08-26T18:35:41.184Z,24.40
2017-08-26T18:38:38.708Z,24.10
2017-08-26T18:41:36.334Z,23.80
2017-08-26T18:44:34.861Z,23.60
2017-08-26T18:47:38.539Z,23.40
2017-08-26T18:50:42.110Z,23.20
2017-08-26T18:53:39.590Z,22.70
2017-08-26T18:56:40.175Z,22.50
2017-08-26T18:59:38.946Z,22.40
2017-08-26T19:02:38.710Z,22.40
2017-08-26T19:05:36.461Z,22.40
2017-08-26T19:08:38.087Z,22.30
2017-08-26T19:11:35.542Z,22.20
2017-08-26T19:14:39.035Z,22.30
2017-08-26T19:17:43.025Z,22.40
2017-08-26T19:20:43.579Z,22.40
2017-08-26T19:23:41.196Z,22.50
2017-08-26T19:26:45.018Z,22.40
2017-08-26T19:29:42.698Z,22.30
2017-08-26T19:32:41.305Z,22.10
2017-08-26T19:35:40.088Z,21.90
2017-08-26T19:38:37.573Z,21.70
2017-08-26T19:41:41.155Z,21.70
2017-08-26T19:44:39.955Z,21.50
2017-08-26T19:47:42.718Z,21.30
2017-08-26T19:50:40.544Z,21.30
2017-08-26T19:53:37.928Z,21.30
2017-08-26T19:56:35.992Z,21.40
2017-08-26T19:59:34.553Z,21.40
2017-08-26T20:02:38.311Z,21.30
2017-08-26T20:05:37.703Z,21.30
2017-08-26T20:08:38.148Z,21.30
2017-08-26T20:11:42.784Z,21.20
2017-08-26T20:14:40.379Z,21.10
2017-08-26T20:17:37.996Z,21.10
2017-08-26T20:20:35.604Z,21.00
2017-08-26T20:23:33.259Z,21.00
2017-08-26T20:26:31.086Z,21.00
2017-08-26T20:29:28.778Z,21.00
2017-08-26T20:32:26.365Z,20.90
2017-08-26T20:35:23.866Z,20.90
2017-08-26T20:38:21.406Z,21.00
2017-08-26T20:41:19.095Z,21.00
2017-08-26T20:44:16.636Z,20.90
2017-08-26T20:47:14.403Z,20.90
2017-08-26T20:50:11.823Z,20.90
2017-08-26T20:53:09.274Z,20.90
2017-08-26T20:56:06.903Z,20.90
2017-08-26T20:59:04.340Z,20.90
2017-08-26T21:02:01.890Z,20.90
2017-08-26T21:05:00.387Z,20.60
2017-08-26T21:07:57.866Z,20.60
2017-08-26T21:10:55.355Z,20.60
2017-08-26T21:13:52.783Z,20.50
2017-08-26T21:16:51.360Z,20.50
2017-08-26T21:20:04.096Z,20.40
2017-08-26T21:23:12.644Z,20.40
2017-08-26T21:26:11.106Z,20.40
2017-08-26T21:29:09.675Z,20.30
2017-08-26T21:32:10.288Z,20.30
2017-08-26T21:35:13.150Z,20.30
2017-08-26T21:38:13.630Z,20.20
2017-08-26T21:41:11.288Z,20.10
2017-08-26T21:44:10.183Z,20.00
2017-08-26T21:47:14.648Z,19.80
2017-08-26T21:50:13.087Z,19.80
2017-08-26T21:53:13.654Z,19.80
2017-08-26T21:56:12.178Z,19.80
2017-08-26T21:59:25.785Z,19.90
2017-08-26T22:02:27.366Z,20.00
2017-08-26T22:05:27.815Z,20.00
2017-08-26T22:08:37.446Z,20.10
2017-08-26T22:11:48.098Z,20.20
2017-08-26T22:14:52.782Z,20.20
2017-08-26T22:17:58.406Z,20.20
2017-08-26T22:21:11.119Z,20.20
2017-08-26T22:24:09.914Z,20.30
2017-08-26T22:27:07.806Z,20.20
2017-08-26T22:30:10.651Z,20.30
2017-08-26T22:33:11.228Z,20.30
2017-08-26T22:36:14.090Z,20.30
2017-08-26T22:42:40.683Z,20.30
2017-08-26T22:45:47.674Z,20.30
2017-08-26T22:48:45.552Z,20.30
2017-08-26T22:51:49.376Z,20.20
2017-08-26T22:54:47.186Z,20.30
2017-08-26T22:57:57.786Z,20.20
2017-08-26T23:00:55.186Z,20.20
2017-08-26T23:03:55.882Z,20.20
2017-08-26T23:07:00.607Z,20.30
2017-08-26T23:10:04.487Z,20.30
2017-08-26T23:13:08.156Z,20.30
2017-08-26T23:16:18.752Z,20.40
2017-08-26T23:19:16.438Z,20.30
2017-08-26T23:22:14.075Z,20.30
2017-08-26T23:25:32.762Z,20.30
2017-08-26T23:28:31.335Z,20.20
2017-08-26T23:31:29.926Z,20.30
2017-08-26T23:34:34.482Z,20.30
2017-08-26T23:37:33.199Z,20.30
2017-08-26T23:43:51.304Z,20.20
2017-08-26T23:46:49.928Z,20.10
2017-08-26T23:53:20.628Z,20.00
2017-08-26T23:56:18.446Z,19.70
2017-08-26T23:59:30.273Z,19.40
